• Join FlightAware (Why Join?)
  • Login
  • US Flag 
05:07AM EST


 

Airport Tracker/Info


-or-


 

Live Flight TrackerFlight Track Log ✈ JTA613 ✈ 27-Jun-2013 ✈ ROAH / OKA - ROIG / ISG

Flight Track Log - Related Links

Times and Time Zones

All times are in EDT time to prevent confusion due to time zone crossing. See the JTA613 flight status page for this flight to view local times or setup timezone preferences in your user account.

Time Position Orientation Groundspeed Altitude Reporting Facility
EDT Latitude Longitude Course Direction KTS MPH feet Rate Location/Type
01:36AM 26.0490 127.3619 240° Southwest  Level Estimated
01:37AM 25.9999 127.2674 240° Southwest  Level Estimated
01:38AM 25.9508 127.1730 240° Southwest  Level Estimated
01:39AM 25.9016 127.0786 240° Southwest  Level Estimated
01:40AM 25.8524 126.9843 240° Southwest  Level Estimated
01:41AM 25.8030 126.8901 240° Southwest  Level Estimated
01:42AM 25.7537 126.7960 240° Southwest  Level Estimated
01:43AM 25.7042 126.7020 240° Southwest  Level Estimated
01:44AM 25.6548 126.6080 240° Southwest  Level Estimated
01:45AM 25.6052 126.5142 240° Southwest  Level Estimated
01:46AM 25.5556 126.4204 240° Southwest  Level Estimated
01:47AM 25.5059 126.3267 240° Southwest  Level Estimated
01:48AM 25.4562 126.2330 240° Southwest  Level Estimated
01:49AM 25.4064 126.1394 240° Southwest  Level Estimated
01:50AM 25.3566 126.0460 239° Southwest  Level Estimated
01:51AM 25.3066 125.9525 239° Southwest  Level Estimated
01:52AM 25.2567 125.8592 239° Southwest  Level Estimated
01:53AM 25.2066 125.7660 239° Southwest  Level Estimated
01:54AM 25.1566 125.6728 239° Southwest  Level Estimated
01:55AM 25.1064 125.5797 239° Southwest  Level Estimated
01:56AM 25.0562 125.4866 239° Southwest  Level Estimated
01:57AM 25.0060 125.3937 239° Southwest  Level Estimated
01:58AM 24.9556 125.3008 239° Southwest  Level Estimated
01:59AM 24.9053 125.2080 239° Southwest  Level Estimated
02:00AM 24.8548 125.1153 239° Southwest  Level Estimated
02:01AM 24.8043 125.0226 239° Southwest  Level Estimated
02:02AM 24.7538 124.9301 239° Southwest  Level Estimated
02:03AM 24.7032 124.8376 239° Southwest  Level Estimated
02:04AM 24.6525 124.7451 239° Southwest  Level Estimated
02:05AM 24.6018 124.6528 239° Southwest  Level Estimated
02:06AM 24.5511 124.5605 239° Southwest  Level Estimated
02:07AM 24.5002 124.4683 239° Southwest  Level Estimated
02:08AM 24.4494 124.3762 239° Southwest  Level Estimated
02:09AM 24.3984 124.2842 239° Southwest  Level Estimated
02:10AM 24.3474 124.1922 239° Southwest  Level Estimated
02:11AM 24.3445 124.1870 239° Southwest  Level Estimated
02:12AM 24.3445 124.1870 29° Northeast  Level Estimated
02:13AM 24.3445 124.1870 29° Northeast  Level Estimated
02:14AM 24.3445 124.1870 29° Northeast  Level Estimated
02:15AM 24.3445 124.1870 29° Northeast  Level Estimated
02:16AM 24.3445 124.1870 29° Northeast  Level Estimated